createdAt,value
2023-05-24T00:02:07.303Z,76.60
2023-05-24T00:05:10.303Z,76.57
2023-05-24T00:08:12.264Z,76.57
2023-05-24T00:11:13.954Z,76.54
2023-05-24T00:14:15.657Z,76.53
2023-05-24T00:17:17.459Z,76.50
2023-05-24T00:20:20.102Z,76.43
2023-05-24T00:23:22.101Z,76.43
2023-05-24T00:26:23.834Z,76.40
2023-05-24T00:29:29.650Z,76.36
2023-05-24T00:32:32.601Z,76.35
2023-05-24T00:35:34.721Z,76.27
2023-05-24T00:38:36.470Z,76.24
2023-05-24T00:41:38.203Z,76.15
2023-05-24T00:44:40.344Z,76.08
2023-05-24T00:47:42.418Z,76.05
2023-05-24T00:50:44.283Z,75.99
2023-05-24T00:53:47.796Z,75.98
2023-05-24T00:56:49.780Z,75.90
2023-05-24T00:59:52.102Z,75.84
2023-05-24T01:02:54.616Z,75.76
2023-05-24T01:05:57.964Z,75.74
2023-05-24T01:09:06.172Z,75.69
2023-05-24T01:12:22.981Z,75.67
2023-05-24T01:15:36.747Z,75.60
2023-05-24T01:18:43.638Z,75.53
2023-05-24T01:22:01.193Z,75.59
2023-05-24T01:25:13.982Z,75.61
2023-05-24T01:28:20.870Z,75.52
2023-05-24T01:31:23.336Z,75.47
2023-05-24T01:34:26.357Z,75.45
2023-05-24T01:37:28.144Z,75.39
2023-05-24T01:40:30.037Z,75.41
2023-05-24T01:43:40.269Z,75.41
2023-05-24T01:46:42.159Z,75.44
2023-05-24T01:49:49.856Z,75.43
2023-05-24T01:52:52.895Z,75.42
2023-05-24T01:55:56.601Z,75.39
2023-05-24T01:59:01.177Z,75.42
2023-05-24T02:02:05.162Z,75.50
2023-05-24T02:05:07.331Z,75.47
2023-05-24T02:08:09.832Z,75.48
2023-05-24T02:11:11.586Z,75.47
2023-05-24T02:14:13.743Z,75.49
2023-05-24T02:17:17.350Z,75.46
2023-05-24T02:20:21.951Z,75.46
2023-05-24T02:23:23.669Z,75.46
2023-05-24T02:26:25.503Z,75.48
2023-05-24T02:29:27.237Z,75.47
2023-05-24T02:32:29.039Z,75.44
2023-05-24T02:35:32.689Z,75.49
2023-05-24T02:38:34.933Z,75.44
2023-05-24T02:41:36.553Z,75.38
2023-05-24T02:44:38.251Z,75.38
2023-05-24T02:47:40.051Z,75.34
2023-05-24T02:50:42.181Z,75.39
2023-05-24T02:53:44.774Z,75.45
2023-05-24T02:56:47.316Z,75.45
2023-05-24T02:59:50.515Z,75.40
2023-05-24T03:02:52.364Z,75.34
2023-05-24T03:05:54.218Z,75.37
2023-05-24T03:08:56.428Z,75.36
2023-05-24T03:11:59.082Z,75.34
2023-05-24T03:15:00.888Z,75.36
2023-05-24T03:18:06.195Z,75.36
2023-05-24T03:21:08.130Z,75.33
2023-05-24T03:24:10.020Z,75.29
2023-05-24T03:27:12.871Z,75.32
2023-05-24T03:30:14.791Z,75.35
2023-05-24T03:33:25.957Z,75.39
2023-05-24T03:36:28.490Z,75.37
2023-05-24T03:39:30.363Z,75.39
2023-05-24T03:42:50.452Z,75.46
2023-05-24T03:45:52.407Z,75.45
2023-05-24T03:48:54.322Z,75.47
2023-05-24T03:51:56.165Z,75.50
2023-05-24T03:54:57.952Z,75.50
2023-05-24T03:57:59.746Z,75.51
2023-05-24T04:01:01.688Z,75.46
2023-05-24T04:04:03.674Z,75.44
2023-05-24T04:07:07.300Z,75.50
2023-05-24T04:10:09.368Z,75.50
2023-05-24T04:13:11.120Z,75.46
2023-05-24T04:16:13.451Z,75.44
2023-05-24T04:19:15.661Z,75.19
2023-05-24T04:22:18.021Z,74.95
2023-05-24T04:25:20.306Z,74.80
2023-05-24T04:28:23.108Z,74.68
2023-05-24T04:31:28.727Z,74.56
2023-05-24T04:34:35.099Z,74.46
2023-05-24T04:37:37.001Z,74.28
2023-05-24T04:40:38.792Z,74.17
2023-05-24T04:43:40.593Z,74.09
2023-05-24T04:46:42.295Z,73.98
2023-05-24T04:49:45.072Z,73.82
2023-05-24T04:52:46.744Z,73.71
2023-05-24T04:55:49.498Z,73.62
2023-05-24T04:58:51.250Z,73.54
2023-05-24T05:01:53.203Z,73.54
2023-05-24T05:04:55.029Z,73.61
2023-05-24T05:07:56.892Z,73.61
2023-05-24T05:10:58.681Z,73.45
2023-05-24T05:14:00.714Z,73.41
2023-05-24T05:17:02.431Z,73.37
2023-05-24T05:20:07.718Z,73.24
2023-05-24T05:23:09.537Z,73.16
2023-05-24T05:26:12.995Z,73.19
2023-05-24T05:29:14.903Z,73.17
2023-05-24T05:32:16.709Z,73.04
2023-05-24T05:35:18.582Z,72.96
2023-05-24T05:38:20.339Z,72.96
2023-05-24T05:41:22.250Z,72.90
2023-05-24T05:44:23.994Z,72.88
2023-05-24T05:47:25.753Z,72.92
2023-05-24T05:50:27.560Z,72.91
2023-05-24T05:53:29.475Z,72.99
2023-05-24T05:56:32.136Z,72.88
2023-05-24T05:59:35.452Z,72.84
2023-05-24T06:02:37.240Z,72.78
2023-05-24T06:05:39.164Z,72.67
2023-05-24T06:08:41.258Z,72.57
2023-05-24T06:11:44.341Z,72.49
2023-05-24T06:14:47.711Z,72.52
2023-05-24T06:17:51.276Z,72.55
2023-05-24T06:20:53.120Z,72.47
2023-05-24T06:23:57.663Z,72.48
2023-05-24T06:26:59.496Z,72.41
2023-05-24T06:30:01.427Z,72.47
2023-05-24T06:33:03.580Z,72.57
2023-05-24T06:36:05.496Z,72.58
2023-05-24T06:39:07.274Z,72.65
2023-05-24T06:42:08.964Z,72.60
2023-05-24T06:45:13.763Z,72.64
2023-05-24T06:48:15.619Z,72.73
2023-05-24T06:51:17.575Z,72.77
2023-05-24T06:54:19.444Z,72.65
2023-05-24T06:57:21.668Z,72.67
2023-05-24T07:00:23.688Z,72.58
2023-05-24T07:03:25.950Z,72.53
2023-05-24T07:06:27.684Z,72.56
2023-05-24T07:09:29.612Z,72.62
2023-05-24T07:12:32.011Z,72.63
2023-05-24T07:15:33.840Z,72.62
2023-05-24T07:18:35.793Z,72.60
2023-05-24T07:21:37.626Z,72.58
2023-05-24T07:24:39.469Z,72.49
2023-05-24T07:27:41.423Z,72.47
2023-05-24T07:30:44.547Z,72.45
2023-05-24T07:33:46.920Z,72.45
2023-05-24T07:36:48.942Z,72.15
2023-05-24T07:39:51.672Z,72.03
2023-05-24T07:42:53.548Z,71.99
2023-05-24T07:45:55.829Z,71.87
2023-05-24T07:48:57.656Z,71.83
2023-05-24T07:51:59.757Z,71.88
2023-05-24T07:55:02.280Z,71.63
2023-05-24T07:58:04.148Z,71.49
2023-05-24T08:01:05.971Z,71.36
2023-05-24T08:04:09.352Z,71.28
2023-05-24T08:07:11.209Z,71.14
2023-05-24T08:10:13.128Z,70.99
2023-05-24T08:13:15.051Z,71.00
2023-05-24T08:16:17.887Z,70.96
2023-05-24T08:19:19.676Z,70.93
2023-05-24T08:22:21.544Z,70.82
2023-05-24T08:25:23.595Z,70.77
2023-05-24T08:28:26.226Z,70.73
2023-05-24T08:31:28.097Z,70.81
2023-05-24T08:34:30.121Z,70.65
2023-05-24T08:37:32.773Z,70.73
2023-05-24T08:40:34.722Z,70.58
2023-05-24T08:43:41.313Z,70.55
2023-05-24T08:46:43.611Z,70.65
2023-05-24T08:49:46.978Z,70.51
2023-05-24T08:52:50.986Z,70.43
2023-05-24T08:55:55.579Z,70.37
2023-05-24T08:58:57.504Z,70.31
2023-05-24T09:02:00.761Z,70.21
2023-05-24T09:05:04.311Z,70.20
2023-05-24T09:08:06.495Z,70.27
2023-05-24T09:11:08.633Z,70.34
2023-05-24T09:14:10.680Z,70.40
2023-05-24T09:17:15.785Z,70.23
2023-05-24T09:20:18.147Z,70.15
2023-05-24T09:23:20.156Z,70.21
2023-05-24T09:26:21.973Z,70.01
2023-05-24T09:29:24.073Z,69.87
2023-05-24T09:32:26.254Z,69.74
2023-05-24T09:35:28.034Z,69.69
2023-05-24T09:38:30.298Z,69.76
2023-05-24T09:41:32.119Z,69.50
2023-05-24T09:44:33.942Z,69.64
2023-05-24T09:47:37.392Z,69.70
2023-05-24T09:50:39.493Z,69.64
2023-05-24T09:53:46.382Z,69.64
2023-05-24T09:56:48.347Z,69.73
2023-05-24T09:59:51.182Z,69.81
2023-05-24T10:03:08.201Z,69.86
2023-05-24T10:06:11.446Z,69.84
2023-05-24T10:09:14.103Z,69.78
2023-05-24T10:12:22.397Z,69.81
2023-05-24T10:15:25.564Z,69.90
2023-05-24T10:18:28.004Z,69.91
2023-05-24T10:21:32.284Z,69.88
2023-05-24T10:24:47.172Z,69.76
2023-05-24T10:27:51.338Z,69.70
2023-05-24T10:31:05.256Z,69.54
2023-05-24T10:34:09.007Z,69.50
2023-05-24T10:37:11.494Z,69.31
2023-05-24T10:40:16.869Z,69.20
2023-05-24T10:43:18.807Z,69.39
2023-05-24T10:46:22.155Z,69.38
2023-05-24T10:49:24.012Z,69.25
2023-05-24T10:52:35.750Z,69.06
2023-05-24T10:55:50.698Z,69.26
2023-05-24T10:58:57.303Z,69.20
2023-05-24T11:02:00.232Z,69.12
2023-05-24T11:05:05.364Z,69.15
2023-05-24T11:08:07.481Z,69.16
2023-05-24T11:14:19.871Z,68.96
2023-05-24T11:17:23.276Z,68.86
2023-05-24T11:20:25.515Z,68.75
2023-05-24T11:23:28.516Z,68.70
2023-05-24T11:26:30.908Z,68.53
2023-05-24T11:29:40.637Z,68.55
2023-05-24T11:32:48.819Z,68.32
2023-05-24T11:35:54.910Z,68.28
2023-05-24T11:38:57.094Z,68.15
2023-05-24T11:41:59.365Z,68.20
2023-05-24T11:45:01.390Z,68.33
2023-05-24T11:48:07.190Z,68.43
2023-05-24T11:51:09.069Z,68.06
2023-05-24T11:54:11.271Z,68.13
2023-05-24T11:57:13.725Z,68.27
2023-05-24T12:00:24.058Z,68.11
2023-05-24T12:03:26.294Z,68.08
2023-05-24T12:06:38.007Z,68.08
2023-05-24T12:09:39.857Z,68.18
2023-05-24T12:12:45.981Z,67.97
2023-05-24T12:15:58.263Z,67.68
2023-05-24T12:19:07.198Z,67.45
2023-05-24T12:22:11.519Z,67.83
2023-05-24T12:25:15.990Z,67.48
2023-05-24T12:28:24.190Z,67.36
2023-05-24T12:31:26.302Z,67.27
2023-05-24T12:34:28.448Z,67.20
2023-05-24T12:37:30.577Z,67.52
2023-05-24T12:40:32.930Z,67.64
2023-05-24T12:43:34.827Z,67.70
2023-05-24T12:46:36.691Z,67.56
2023-05-24T12:49:38.538Z,67.66
2023-05-24T12:52:40.364Z,67.64
2023-05-24T12:55:42.249Z,67.65
2023-05-24T12:58:44.057Z,67.46
2023-05-24T13:01:50.107Z,67.31
2023-05-24T13:04:51.992Z,67.26
2023-05-24T13:07:56.143Z,67.43
2023-05-24T13:10:58.012Z,67.33
2023-05-24T13:13:59.929Z,67.39
2023-05-24T13:17:02.005Z,67.54
2023-05-24T13:20:07.260Z,67.47
2023-05-24T13:23:12.405Z,67.35
2023-05-24T13:26:14.485Z,67.62
2023-05-24T13:32:21.698Z,69.16
2023-05-24T13:35:23.889Z,68.26
2023-05-24T13:38:26.374Z,67.56
2023-05-24T13:41:28.234Z,67.42
2023-05-24T13:44:31.702Z,67.27
2023-05-24T13:47:39.843Z,67.15
2023-05-24T13:50:44.550Z,67.18
2023-05-24T13:53:56.997Z,67.28
2023-05-24T13:57:02.102Z,67.17
2023-05-24T14:00:04.503Z,67.01
2023-05-24T14:03:07.133Z,66.93
2023-05-24T14:06:09.334Z,66.82
2023-05-24T14:09:11.248Z,67.03
2023-05-24T14:12:13.346Z,67.10
2023-05-24T14:15:15.169Z,67.27
2023-05-24T14:18:17.084Z,67.31
2023-05-24T14:21:21.043Z,67.08
2023-05-24T14:24:23.676Z,66.98
2023-05-24T14:27:25.500Z,66.89
2023-05-24T14:30:27.292Z,66.94
2023-05-24T14:33:29.073Z,66.90
2023-05-24T14:36:31.097Z,67.02
2023-05-24T14:39:33.250Z,67.20
2023-05-24T14:42:35.524Z,67.30
2023-05-24T14:45:43.743Z,67.44
2023-05-24T14:48:45.855Z,67.40
2023-05-24T14:51:50.505Z,67.19
2023-05-24T14:54:52.350Z,67.29
2023-05-24T14:57:54.214Z,67.56
2023-05-24T15:00:56.146Z,67.30
2023-05-24T15:03:58.133Z,67.21
2023-05-24T15:07:00.203Z,67.25
2023-05-24T15:10:02.519Z,67.28
2023-05-24T15:13:04.710Z,67.28
2023-05-24T15:16:06.410Z,67.32
2023-05-24T15:19:09.520Z,67.39
2023-05-24T15:22:11.309Z,67.33
2023-05-24T15:25:13.391Z,67.42
2023-05-24T15:28:16.598Z,67.45
2023-05-24T15:31:18.744Z,67.52
2023-05-24T15:34:23.449Z,67.45
2023-05-24T15:37:25.897Z,67.56
2023-05-24T15:40:27.904Z,67.61
2023-05-24T15:43:30.294Z,67.76
2023-05-24T15:46:32.309Z,67.62
2023-05-24T15:49:34.346Z,67.75
2023-05-24T15:52:36.124Z,67.67
2023-05-24T15:55:38.439Z,67.95
2023-05-24T15:58:40.512Z,68.33
2023-05-24T16:01:42.451Z,67.78
2023-05-24T16:04:44.331Z,67.75
2023-05-24T16:07:46.222Z,67.77
2023-05-24T16:10:48.550Z,67.76
2023-05-24T16:13:50.481Z,67.78
2023-05-24T16:16:52.361Z,67.85
2023-05-24T16:19:54.396Z,68.21
2023-05-24T16:22:57.502Z,68.30
2023-05-24T16:25:59.319Z,68.17
2023-05-24T16:29:01.341Z,68.27
2023-05-24T16:32:03.396Z,68.29
2023-05-24T16:35:06.703Z,68.11
2023-05-24T16:38:08.730Z,68.22
2023-05-24T16:41:10.556Z,68.25
2023-05-24T16:44:16.865Z,68.25
2023-05-24T16:47:18.616Z,68.40
2023-05-24T16:50:20.397Z,68.42
2023-05-24T16:53:26.399Z,68.43
2023-05-24T16:56:28.446Z,68.46
2023-05-24T16:59:30.251Z,68.42
2023-05-24T17:02:33.743Z,68.51
2023-05-24T17:05:35.656Z,68.55
2023-05-24T17:08:37.554Z,68.64
2023-05-24T17:11:40.556Z,68.69
2023-05-24T17:14:42.656Z,68.78
2023-05-24T17:17:44.932Z,68.78
2023-05-24T17:20:47.007Z,68.86
2023-05-24T17:23:49.026Z,68.89
2023-05-24T17:26:50.689Z,68.88
2023-05-24T17:30:16.400Z,68.85
2023-05-24T17:33:18.225Z,68.88
2023-05-24T17:36:20.705Z,68.91
2023-05-24T17:39:23.207Z,68.90
2023-05-24T17:42:25.073Z,68.91
2023-05-24T17:45:26.920Z,68.98
2023-05-24T17:48:30.751Z,69.02
2023-05-24T17:51:34.861Z,69.09
2023-05-24T17:54:36.627Z,69.13
2023-05-24T17:57:38.391Z,69.25
2023-05-24T18:00:40.403Z,69.14
2023-05-24T18:03:42.620Z,69.25
2023-05-24T18:06:44.751Z,69.28
2023-05-24T18:09:46.718Z,69.25
2023-05-24T18:12:48.478Z,69.41
2023-05-24T18:15:50.363Z,69.44
2023-05-24T18:18:52.242Z,69.48
2023-05-24T18:21:53.965Z,69.59
2023-05-24T18:24:55.748Z,69.55
2023-05-24T18:27:58.360Z,69.63
2023-05-24T18:31:00.289Z,69.84
2023-05-24T18:34:02.617Z,69.75
2023-05-24T18:37:04.608Z,70.11
2023-05-24T18:40:07.146Z,70.07
2023-05-24T18:43:08.895Z,69.94
2023-05-24T18:46:14.326Z,69.95
2023-05-24T18:49:17.052Z,69.98
2023-05-24T18:52:18.812Z,69.93
2023-05-24T18:55:20.540Z,69.85
2023-05-24T18:58:22.418Z,70.14
2023-05-24T19:01:24.986Z,70.27
2023-05-24T19:04:28.456Z,70.41
2023-05-24T19:07:30.323Z,70.33
2023-05-24T19:10:32.023Z,70.32
2023-05-24T19:13:33.682Z,70.26
2023-05-24T19:16:35.901Z,70.25
2023-05-24T19:19:37.588Z,70.63
2023-05-24T19:22:39.357Z,70.53
2023-05-24T19:25:43.348Z,70.78
2023-05-24T19:28:51.483Z,70.90
2023-05-24T19:31:53.347Z,71.07
2023-05-24T19:34:55.107Z,70.83
2023-05-24T19:37:56.864Z,70.63
2023-05-24T19:40:58.732Z,70.45
2023-05-24T19:44:00.788Z,70.37
2023-05-24T19:47:02.596Z,70.31
2023-05-24T19:50:05.521Z,70.33
2023-05-24T19:53:07.243Z,70.39
2023-05-24T19:56:09.867Z,70.35
2023-05-24T19:59:11.778Z,70.34
2023-05-24T20:02:16.458Z,70.42
2023-05-24T20:05:18.181Z,70.64
2023-05-24T20:08:21.601Z,70.45
2023-05-24T20:11:23.622Z,70.37
2023-05-24T20:14:27.441Z,70.36
2023-05-24T20:17:29.211Z,70.37
2023-05-24T20:20:31.765Z,70.31
2023-05-24T20:23:33.590Z,70.27
2023-05-24T20:26:36.389Z,70.16
2023-05-24T20:29:38.205Z,70.12
2023-05-24T20:32:40.069Z,70.23
2023-05-24T20:35:42.436Z,70.24
2023-05-24T20:38:44.413Z,70.19
2023-05-24T20:41:46.113Z,70.16
2023-05-24T20:44:48.048Z,70.17
2023-05-24T20:47:50.036Z,70.18
2023-05-24T20:50:51.853Z,70.26
2023-05-24T20:53:53.649Z,70.24
2023-05-24T20:56:55.449Z,70.32
2023-05-24T20:59:57.166Z,70.29
2023-05-24T21:02:59.061Z,70.34
2023-05-24T21:06:01.008Z,70.33
2023-05-24T21:09:02.856Z,70.32
2023-05-24T21:12:05.766Z,70.27
2023-05-24T21:15:08.157Z,70.27
2023-05-24T21:18:09.985Z,70.31
2023-05-24T21:21:11.824Z,70.40
2023-05-24T21:24:15.281Z,70.41
2023-05-24T21:27:18.293Z,70.41
2023-05-24T21:30:20.103Z,70.40
2023-05-24T21:33:21.837Z,70.53
2023-05-24T21:36:23.640Z,70.56
2023-05-24T21:39:25.390Z,70.56
2023-05-24T21:42:27.056Z,70.58
2023-05-24T21:45:28.813Z,70.61
2023-05-24T21:48:30.488Z,70.65
2023-05-24T21:51:32.419Z,70.66
2023-05-24T21:54:34.252Z,70.69
2023-05-24T21:57:36.066Z,70.71
2023-05-24T22:00:37.942Z,70.70
2023-05-24T22:03:39.750Z,70.75
2023-05-24T22:06:42.085Z,70.64
2023-05-24T22:09:43.789Z,70.71
2023-05-24T22:12:45.566Z,70.66
2023-05-24T22:15:47.368Z,70.67
2023-05-24T22:18:53.594Z,70.74
2023-05-24T22:21:55.600Z,70.65
2023-05-24T22:24:59.562Z,70.58
2023-05-24T22:28:01.410Z,70.57
2023-05-24T22:31:03.116Z,70.66
2023-05-24T22:34:04.914Z,70.64
2023-05-24T22:37:06.780Z,70.70
2023-05-24T22:40:08.814Z,70.66
2023-05-24T22:43:10.601Z,70.66
2023-05-24T22:46:12.388Z,70.59
2023-05-24T22:49:18.600Z,70.52
2023-05-24T22:52:20.422Z,70.53
2023-05-24T22:55:22.320Z,70.44
2023-05-24T22:58:24.289Z,70.33
2023-05-24T23:01:26.220Z,70.18
2023-05-24T23:04:28.256Z,70.13
2023-05-24T23:07:30.067Z,70.12
2023-05-24T23:10:31.818Z,70.20
2023-05-24T23:13:35.306Z,70.23
2023-05-24T23:16:39.504Z,70.18
2023-05-24T23:19:42.729Z,70.08
2023-05-24T23:22:46.168Z,69.87
2023-05-24T23:25:51.119Z,69.79
2023-05-24T23:28:52.845Z,69.77
2023-05-24T23:31:54.600Z,69.72
2023-05-24T23:34:56.307Z,69.76
2023-05-24T23:37:58.035Z,69.82
2023-05-24T23:41:00.047Z,69.78
2023-05-24T23:44:01.807Z,69.73
2023-05-24T23:47:03.953Z,69.92
2023-05-24T23:50:06.507Z,69.81
2023-05-24T23:53:08.432Z,69.82
2023-05-24T23:56:10.593Z,69.71
2023-05-24T23:59:12.325Z,69.89
